Time;durP1;ratioP1;P1;durP2;ratioP2;P2;SDS_P1;SDS_P2;PMS_P1;PMS_P2;Temp;Humidity;BMP_temperature;BMP_pressure;BME280_temperature;BME280_humidity;BME280_pressure;Samples;Min_cycle;Max_cycle;Signal;HPM_P1;HPM_P2
2022/05/23 00:00:57;;;;;;;7.43;2.50;;;;;;;15.82;55.65;97751.06;5437684;26;20059;-76
2022/05/23 00:03:24;;;;;;;7.85;2.40;;;;;;;17.63;49.91;97746.69;5437241;26;20054;-76
2022/05/23 00:05:51;;;;;;;5.65;2.35;;;;;;;18.19;48.21;97749.34;5437539;26;20299;-76
2022/05/23 00:08:18;;;;;;;6.22;2.20;;;;;;;18.96;45.66;97746.69;5417084;26;20114;-76
2022/05/23 00:10:45;;;;;;;5.45;2.33;;;;;;;18.20;47.28;97756.22;5437213;26;20063;-76
2022/05/23 00:13:12;;;;;;;7.18;2.33;;;;;;;17.86;48.55;97758.84;5437580;26;20076;-76
2022/05/23 00:15:39;;;;;;;5.30;2.40;;;;;;;18.08;47.97;97758.03;5417118;26;20464;-77
2022/05/23 00:18:07;;;;;;;6.32;2.45;;;;;;;17.83;48.70;97761.69;5436838;26;20126;-76
2022/05/23 00:20:34;;;;;;;6.35;2.37;;;;;;;18.51;47.11;97767.72;5437686;26;20047;-76
2022/05/23 00:23:00;;;;;;;8.18;2.30;;;;;;;18.46;47.33;97762.00;5432108;26;139735;-76
2022/05/23 00:25:27;;;;;;;7.32;2.33;;;;;;;17.50;49.90;97757.22;5437117;26;20071;-76
2022/05/23 00:27:54;;;;;;;5.95;2.35;;;;;;;17.78;49.69;97748.16;5416997;26;20106;-76
2022/05/23 00:30:24;;;;;;;4.97;2.60;;;;;;;18.57;47.52;97755.94;5437291;26;20119;-76
2022/05/23 00:35:38;;;;;;;5.00;2.25;;;;;;;18.25;47.54;97753.25;5437625;26;20486;-76
2022/05/23 00:38:05;;;;;;;6.00;2.33;;;;;;;18.15;48.17;97755.75;5437253;26;20492;-76
2022/05/23 00:43:13;;;;;;;8.10;2.37;;;;;;;18.50;47.47;97751.22;5437082;26;20048;-76
2022/05/23 00:43:50;;;;;;;7.35;2.30;;;;;;;18.00;48.66;97751.72;5437304;26;20122;-75
2022/05/23 00:46:17;;;;;;;4.82;2.30;;;;;;;18.13;48.85;97750.66;5437243;26;20085;-75
2022/05/23 00:48:44;;;;;;;5.82;2.10;;;;;;;17.99;48.99;97747.47;5437475;26;20685;-76
2022/05/23 00:51:14;;;;;;;7.80;2.40;;;;;;;18.95;46.37;97745.03;5437404;26;20123;-76
2022/05/23 00:53:47;;;;;;;5.82;2.42;;;;;;;19.06;45.54;97748.44;5416535;26;20362;-76
2022/05/23 00:56:15;;;;;;;4.90;2.10;;;;;;;19.05;45.40;97753.78;5437495;26;20114;-75
2022/05/23 00:58:44;;;;;;;4.62;2.12;;;;;;;18.78;46.19;97762.91;5437301;26;20107;-76
2022/05/23 01:01:14;;;;;;;5.20;2.35;;;;;;;18.73;46.72;97749.41;5416642;26;20661;-76
2022/05/23 01:03:41;;;;;;;7.05;2.47;;;;;;;18.77;46.63;97756.03;5398247;26;20077;-76
2022/05/23 01:06:09;;;;;;;6.50;2.37;;;;;;;18.39;47.41;97759.03;5417009;26;20120;-76
2022/05/23 01:08:37;;;;;;;5.07;2.20;;;;;;;18.47;46.92;97754.03;5436821;26;20114;-76
2022/05/23 01:11:04;;;;;;;5.28;2.12;;;;;;;19.16;45.41;97747.69;5398291;26;20050;-76
2022/05/23 01:13:31;;;;;;;4.95;2.22;;;;;;;19.03;45.42;97748.69;5416423;26;20501;-76
2022/05/23 01:15:58;;;;;;;6.30;2.30;;;;;;;19.35;44.42;97753.88;5437341;26;20149;-76
2022/05/23 01:18:25;;;;;;;6.20;2.33;;;;;;;18.79;46.03;97753.28;5437259;26;20051;-76
2022/05/23 01:20:56;;;;;;;9.20;2.40;;;;;;;18.60;46.95;97753.88;5416562;26;20110;-76
2022/05/23 01:23:29;;;;;;;4.40;2.10;;;;;;;18.77;46.74;97739.50;5437840;26;20131;-76
2022/05/23 01:25:56;;;;;;;5.80;2.20;;;;;;;19.70;44.02;97744.06;5417033;26;20071;-76
2022/05/23 01:28:23;;;;;;;4.47;2.05;;;;;;;20.46;41.75;97748.81;5437010;26;20067;-76
2022/05/23 01:30:50;;;;;;;5.75;2.30;;;;;;;19.52;44.05;97742.00;5437020;26;20100;-76
2022/05/23 01:33:18;;;;;;;4.78;2.20;;;;;;;19.96;42.84;97747.06;5437268;26;20063;-76
2022/05/23 01:35:45;;;;;;;6.28;2.22;;;;;;;18.72;46.00;97752.97;5416508;26;20105;-76
2022/05/23 01:38:12;;;;;;;5.95;2.20;;;;;;;19.11;45.10;97747.22;5437027;26;20457;-76
2022/05/23 01:40:40;;;;;;;5.75;2.95;;;;;;;19.36;44.78;97737.22;5437289;26;20047;-76
2022/05/23 01:43:07;;;;;;;5.90;2.05;;;;;;;19.64;43.74;97740.16;5436987;26;20125;-76
2022/05/23 01:45:39;;;;;;;5.37;2.17;;;;;;;18.68;46.30;97743.69;5437303;26;20062;-76
2022/05/23 01:48:07;;;;;;;5.82;2.20;;;;;;;18.81;46.00;97738.28;5437101;26;20141;-76
2022/05/23 01:50:34;;;;;;;6.90;2.30;;;;;;;18.59;46.88;97739.16;5416632;26;20046;-76
2022/05/23 01:53:01;;;;;;;3.72;2.08;;;;;;;18.53;46.92;97739.69;5437200;26;20093;-76
2022/05/23 01:55:29;;;;;;;6.53;2.00;;;;;;;18.53;47.19;97741.47;5436836;26;20070;-76
2022/05/23 01:57:56;;;;;;;6.50;2.33;;;;;;;18.85;46.22;97738.91;5416546;26;20065;-76
2022/05/23 02:03:09;;;;;;;3.72;1.80;;;;;;;19.73;43.87;97738.56;5436448;26;20393;-76
2022/05/23 02:05:36;;;;;;;5.75;2.15;;;;;;;20.09;42.86;97737.19;5437120;26;20385;-76
2022/05/23 02:08:03;;;;;;;14.00;2.22;;;;;;;19.23;44.80;97733.97;5416734;26;20098;-76
2022/05/23 02:10:31;;;;;;;7.07;2.00;;;;;;;18.83;46.13;97735.59;5436802;26;20098;-76
2022/05/23 02:13:00;;;;;;;5.43;2.28;;;;;;;18.83;46.35;97725.97;5437237;26;20065;-76
2022/05/23 02:15:31;;;;;;;7.72;2.40;;;;;;;18.94;46.51;97725.09;5437151;26;20133;-76
2022/05/23 02:18:00;;;;;;;7.62;2.50;;;;;;;18.33;48.05;97722.16;5416945;26;20055;-76
2022/05/23 02:20:27;;;;;;;5.22;2.10;;;;;;;18.01;48.80;97722.91;5437262;26;20059;-76
2022/05/23 02:22:54;;;;;;;4.12;2.03;;;;;;;18.59;47.41;97723.50;5437092;26;20373;-76
2022/05/23 02:25:23;;;;;;;8.93;2.35;;;;;;;19.68;44.82;97725.06;5436642;26;20111;-76
2022/05/23 02:27:51;;;;;;;5.82;2.15;;;;;;;19.41;45.40;97720.31;5416658;26;20082;-76
2022/05/23 02:30:18;;;;;;;6.35;2.22;;;;;;;19.26;45.69;97707.56;5436846;26;20055;-76
2022/05/23 02:32:45;;;;;;;4.87;2.12;;;;;;;19.03;46.42;97712.09;5416332;26;20073;-76
2022/05/23 02:35:14;;;;;;;3.00;1.95;;;;;;;19.24;45.96;97708.63;5437015;26;20115;-76
2022/05/23 02:37:41;;;;;;;4.65;1.95;;;;;;;19.26;45.86;97709.34;5415953;26;20556;-76
2022/05/23 02:40:09;;;;;;;5.25;2.33;;;;;;;20.13;42.77;97709.78;5437168;26;20355;-76
2022/05/23 02:42:36;;;;;;;4.70;1.83;;;;;;;20.03;42.63;97715.00;5437119;26;20524;-76
2022/05/23 02:45:08;;;;;;;5.47;2.30;;;;;;;18.74;45.16;97714.47;5436664;26;20117;-76
2022/05/23 02:47:36;;;;;;;4.25;2.00;;;;;;;18.25;47.07;97708.84;5436842;26;20144;-76
2022/05/23 02:50:04;;;;;;;4.15;1.92;;;;;;;18.43;46.88;97707.41;5437059;26;20658;-76
2022/05/23 02:52:31;;;;;;;4.62;2.00;;;;;;;18.49;46.42;97704.28;5436630;26;20126;-76
2022/05/23 02:54:58;;;;;;;4.93;2.05;;;;;;;18.77;46.62;97702.94;5436946;26;20058;-76
2022/05/23 02:57:25;;;;;;;4.80;2.10;;;;;;;18.43;47.49;97704.78;5436704;26;20106;-75
2022/05/23 02:59:52;;;;;;;5.05;2.30;;;;;;;18.35;47.64;97691.50;5436466;26;20412;-76
2022/05/23 03:05:05;;;;;;;4.87;2.20;;;;;;;18.07;48.70;97687.62;5436954;26;20073;-76
2022/05/23 03:07:32;;;;;;;4.93;2.20;;;;;;;19.53;44.85;97691.31;5436419;26;20114;-76
2022/05/23 03:09:59;;;;;;;7.72;2.42;;;;;;;19.42;44.90;97688.78;5436849;26;20125;-76
2022/05/23 03:12:27;;;;;;;5.37;2.25;;;;;;;18.83;46.16;97680.69;5436667;26;20114;-76
2022/05/23 03:14:55;;;;;;;6.00;2.17;;;;;;;18.52;46.96;97683.16;5436900;26;20114;-76
2022/05/23 03:17:22;;;;;;;5.53;2.40;;;;;;;18.76;46.62;97677.75;5437514;26;20381;-76
2022/05/23 03:19:49;;;;;;;5.43;2.40;;;;;;;19.43;45.01;97681.75;5437603;26;20117;-76
2022/05/23 03:27:48;;;;;;;6.60;2.72;;;;;;;18.81;46.43;97672.12;5437314;26;20047;-76
2022/05/23 03:30:15;;;;;;;7.95;2.85;;;;;;;18.84;46.35;97669.28;5437568;26;20043;-76
2022/05/23 03:32:42;;;;;;;5.85;2.62;;;;;;;18.47;47.36;97669.63;5437810;26;20380;-76
2022/05/23 03:35:09;;;;;;;7.25;2.60;;;;;;;19.02;46.40;97673.81;5437225;26;20090;-76
2022/05/23 03:37:36;;;;;;;5.20;2.72;;;;;;;18.70;47.10;97678.22;5437311;26;20377;-76
2022/05/23 03:40:07;;;;;;;5.18;2.40;;;;;;;18.67;47.25;97668.03;5437803;26;20102;-76
2022/05/23 03:42:34;;;;;;;5.35;2.67;;;;;;;19.18;45.98;97668.13;5437384;26;20069;-76
2022/05/23 03:45:02;;;;;;;4.45;2.20;;;;;;;19.60;44.56;97668.13;5437622;26;20081;-76
2022/05/23 03:47:29;;;;;;;5.60;2.30;;;;;;;19.49;44.65;97681.25;5437553;26;20067;-76
2022/05/23 03:49:56;;;;;;;4.30;2.10;;;;;;;19.21;45.04;97687.97;5437416;26;20130;-76
2022/05/23 03:52:23;;;;;;;5.82;2.10;;;;;;;19.19;45.64;97690.72;5437682;26;20055;-76
2022/05/23 03:54:50;;;;;;;5.93;2.28;;;;;;;18.76;46.89;97683.81;5437206;26;20089;-76
2022/05/23 03:57:17;;;;;;;6.15;2.20;;;;;;;19.85;44.31;97693.00;5437449;26;20090;-76
2022/05/23 03:59:45;;;;;;;7.05;2.10;;;;;;;20.45;43.38;97696.53;5437710;26;20130;-76
2022/05/23 04:02:12;;;;;;;8.27;2.10;;;;;;;21.19;42.25;97688.12;5436902;26;20103;-77
2022/05/23 04:04:39;;;;;;;6.18;1.87;;;;;;;21.97;40.50;97688.72;5437724;26;20146;-76
2022/05/23 04:07:08;;;;;;;5.07;1.95;;;;;;;22.75;38.40;97684.66;5437615;26;20061;-76
2022/05/23 04:09:35;;;;;;;8.88;2.87;;;;;;;23.95;35.75;97684.87;5437194;26;20062;-78
2022/05/23 04:12:03;;;;;;;16.05;7.25;;;;;;;24.56;34.91;97686.41;5437639;26;20074;-77
2022/05/23 04:14:30;;;;;;;20.12;9.50;;;;;;;24.88;34.64;97690.87;5437479;26;20079;-77
2022/05/23 04:16:57;;;;;;;12.02;4.72;;;;;;;24.78;35.02;97677.88;5435971;26;20090;-77
2022/05/23 04:19:25;;;;;;;10.35;3.33;;;;;;;23.43;38.67;97691.97;5436466;26;20118;-77
2022/05/23 04:21:52;;;;;;;9.50;3.53;;;;;;;22.76;40.59;97679.28;5437661;26;20123;-77
2022/05/23 04:24:20;;;;;;;10.80;3.62;;;;;;;23.68;38.47;97691.16;5437014;26;20138;-77
2022/05/23 04:26:52;;;;;;;8.20;2.70;;;;;;;24.16;39.02;97697.66;5437234;26;20061;-76
2022/05/23 04:29:20;;;;;;;7.25;2.67;;;;;;;23.18;40.09;97696.22;5437410;26;20149;-76
2022/05/23 04:31:47;;;;;;;5.40;2.37;;;;;;;22.36;41.84;97697.25;5416646;26;20204;-76
2022/05/23 04:37:00;;;;;;;4.65;2.33;;;;;;;21.92;43.40;97694.44;5437175;26;20098;-77
2022/05/23 04:39:27;;;;;;;5.85;2.30;;;;;;;21.72;43.43;97698.09;5437358;26;20046;-77
2022/05/23 04:41:55;;;;;;;9.15;2.70;;;;;;;21.39;44.38;97702.06;5437559;26;20124;-77
2022/05/23 04:44:22;;;;;;;8.60;2.50;;;;;;;22.23;42.73;97705.50;5437034;26;20122;-77
2022/05/23 04:49:41;;;;;;;4.82;2.40;;;;;;;23.15;40.79;97697.34;5437369;26;20046;-77
2022/05/23 04:52:10;;;;;;;7.28;2.70;;;;;;;22.48;42.65;97686.38;5437098;26;20083;-77
2022/05/23 04:54:37;;;;;;;4.80;2.00;;;;;;;20.10;49.51;97681.25;5436583;26;20134;-77
2022/05/23 04:57:05;;;;;;;5.28;1.92;;;;;;;21.06;42.31;97676.13;5416985;26;20076;-76
2022/05/23 04:59:33;;;;;;;5.90;2.00;;;;;;;20.90;41.10;97691.56;5416305;26;20043;-77
2022/05/23 05:02:01;;;;;;;6.22;1.92;;;;;;;22.34;38.35;97702.69;5417043;26;20063;-77
2022/05/23 05:04:29;;;;;;;6.07;2.00;;;;;;;22.96;37.79;97713.31;5437331;26;20055;-78
2022/05/23 05:06:56;;;;;;;5.70;2.40;;;;;;;24.01;35.00;97718.50;5437023;26;20058;-78
2022/05/23 05:09:23;;;;;;;3.97;1.60;;;;;;;25.22;32.95;97719.00;5437134;26;20077;-78
2022/05/23 05:11:50;;;;;;;2.65;1.67;;;;;;;26.42;31.30;97713.59;5437291;26;20067;-78
2022/05/23 05:14:17;;;;;;;3.00;1.70;;;;;;;24.77;33.23;97702.59;5437321;26;20118;-78
2022/05/23 05:16:44;;;;;;;3.30;1.50;;;;;;;25.32;32.50;97693.25;5437280;26;20106;-78
2022/05/23 05:19:11;;;;;;;5.70;1.98;;;;;;;25.13;32.18;97693.59;5436616;26;20062;-79
2022/05/23 05:21:38;;;;;;;5.15;2.08;;;;;;;25.01;32.04;97700.97;5437278;26;20439;-77
2022/05/23 05:24:09;;;;;;;5.32;2.30;;;;;;;24.00;33.42;97702.84;5437355;26;20527;-77
2022/05/23 05:26:37;;;;;;;7.18;2.08;;;;;;;24.53;32.73;97694.66;5416520;26;20114;-77
2022/05/23 05:29:04;;;;;;;5.97;1.77;;;;;;;24.70;32.81;97691.06;5437000;26;20043;-77
2022/05/23 05:31:43;;;;;;;5.47;1.80;;;;;;;24.80;32.32;97696.19;5437005;26;20417;-78
2022/05/23 05:34:42;;;;;;;4.60;1.90;;;;;;;23.76;33.94;97701.75;5436948;26;20743;-78
2022/05/23 05:37:14;;;;;;;3.08;1.77;;;;;;;24.55;32.86;97713.75;5437061;26;20101;-77
2022/05/23 05:39:43;;;;;;;3.12;1.80;;;;;;;24.18;33.34;97719.41;5437598;26;20598;-78
2022/05/23 05:42:19;;;;;;;3.62;1.75;;;;;;;23.72;33.64;97720.66;5415934;26;20122;-77
2022/05/23 05:44:52;;;;;;;3.20;1.80;;;;;;;23.36;34.59;97716.28;5437337;26;20063;-77
2022/05/23 05:47:20;;;;;;;6.50;2.12;;;;;;;24.14;33.67;97704.91;5436485;26;20054;-77
2022/05/23 05:49:55;;;;;;;5.47;1.87;;;;;;;23.72;34.06;97712.75;5437070;26;20393;-78
2022/05/23 05:52:24;;;;;;;6.62;1.90;;;;;;;23.99;32.97;97727.53;5437152;26;20110;-78
2022/05/23 05:54:51;;;;;;;3.28;1.65;;;;;;;24.26;32.59;97729.16;5416284;26;20118;-78
2022/05/23 05:57:19;;;;;;;6.45;1.92;;;;;;;24.45;31.89;97731.53;5412586;26;20069;-77
2022/05/23 05:59:49;;;;;;;5.43;1.92;;;;;;;24.37;32.31;97729.72;5435061;26;20039;-76
2022/05/23 06:02:21;;;;;;;5.07;1.85;;;;;;;23.20;35.12;97723.25;5435075;26;20078;-76
2022/05/23 06:04:51;;;;;;;5.60;1.83;;;;;;;23.32;35.06;97716.75;5416133;26;20070;-76
2022/05/23 06:13:00;;;;;;;8.45;2.25;;;;;;;23.32;34.22;97716.75;5435293;26;20055;-75
2022/05/23 06:15:28;;;;;;;5.40;1.83;;;;;;;24.93;32.03;97725.53;5435730;26;20070;-75
2022/05/23 06:17:55;;;;;;;3.75;1.65;;;;;;;24.24;33.05;97726.66;5435568;26;20054;-78
2022/05/23 06:20:25;;;;;;;5.37;1.95;;;;;;;24.71;32.51;97732.28;5436348;26;20080;-77
2022/05/23 06:22:53;;;;;;;6.18;1.87;;;;;;;24.79;31.62;97731.47;5434893;26;20065;-78
2022/05/23 06:25:21;;;;;;;4.25;1.65;;;;;;;23.57;35.14;97726.44;5436536;26;20075;-78
2022/05/23 06:27:48;;;;;;;6.28;2.00;;;;;;;23.52;34.57;97720.00;5435933;26;20054;-79
2022/05/23 06:30:17;;;;;;;4.95;2.00;;;;;;;23.93;34.52;97716.66;5435702;26;20062;-78
2022/05/23 06:32:44;;;;;;;7.47;1.80;;;;;;;23.90;34.65;97706.41;5435531;26;20059;-78
2022/05/23 06:35:12;;;;;;;7.85;1.80;;;;;;;23.36;34.14;97713.63;5436138;26;20088;-78
2022/05/23 06:37:41;;;;;;;6.12;2.17;;;;;;;23.81;33.23;97715.25;5415305;26;20050;-78
2022/05/23 06:40:10;;;;;;;5.93;2.00;;;;;;;24.59;31.94;97709.84;5436429;26;20090;-78
2022/05/23 06:42:37;;;;;;;5.95;2.28;;;;;;;24.71;33.56;97713.81;5415105;26;20073;-78
2022/05/23 06:45:06;;;;;;;9.82;4.05;;;;;;;24.13;33.10;97722.50;5415414;26;20059;-78
2022/05/23 06:47:33;;;;;;;9.57;4.70;;;;;;;24.95;30.61;97720.09;5436074;26;20050;-79
2022/05/23 06:50:00;;;;;;;12.40;3.92;;;;;;;24.26;32.14;97716.81;5435858;26;20098;-79
2022/05/23 06:52:27;;;;;;;10.75;4.45;;;;;;;24.44;31.75;97716.69;5434807;26;20129;-78
2022/05/23 06:54:54;;;;;;;9.60;4.12;;;;;;;25.26;31.12;97715.03;5436241;26;20110;-78
2022/05/23 06:57:29;;;;;;;9.38;3.62;;;;;;;25.41;31.26;97708.06;5436095;26;20070;-77
2022/05/23 06:59:56;;;;;;;6.65;2.75;;;;;;;25.90;28.93;97710.66;5439877;26;20039;-78
2022/05/23 07:02:24;;;;;;;7.70;3.25;;;;;;;26.79;27.89;97706.75;5436651;26;20082;-78
2022/05/23 07:13:07;;;;;;;7.50;3.12;;;;;;;24.47;31.64;97725.13;5434812;26;20107;-78
2022/05/23 07:15:37;;;;;;;7.43;2.80;;;;;;;24.47;32.90;97719.88;5435992;26;20066;-79
2022/05/23 07:18:05;;;;;;;8.52;2.85;;;;;;;25.49;30.62;97717.81;5415474;26;20126;-78
2022/05/23 07:20:36;;;;;;;7.47;2.95;;;;;;;25.45;31.05;97724.44;5435294;26;20102;-79
2022/05/23 07:23:06;;;;;;;6.78;2.50;;;;;;;25.28;30.62;97729.69;5435122;26;20409;-78
2022/05/23 07:25:35;;;;;;;5.03;2.15;;;;;;;26.08;29.80;97726.28;5435746;26;20118;-79
2022/05/23 07:28:03;;;;;;;6.43;2.45;;;;;;;26.44;30.18;97722.19;5436189;26;20054;-78
2022/05/23 07:30:30;;;;;;;10.90;2.28;;;;;;;25.79;29.96;97711.84;5435574;26;20456;-79
2022/05/23 07:32:57;;;;;;;6.28;2.33;;;;;;;26.38;29.05;97720.25;5434995;26;20364;-79
2022/05/23 07:35:25;;;;;;;6.12;1.92;;;;;;;27.38;27.63;97712.28;5415459;26;20069;-79
2022/05/23 07:37:52;;;;;;;4.65;1.95;;;;;;;26.01;29.38;97712.91;5435591;26;20054;-79
2022/05/23 07:40:20;;;;;;;6.18;1.80;;;;;;;27.43;27.63;97714.37;5435341;26;20055;-80
2022/05/23 07:42:47;;;;;;;4.97;1.92;;;;;;;26.96;27.58;97707.47;5435266;26;20106;-78
2022/05/23 07:45:15;;;;;;;9.52;2.00;;;;;;;27.93;26.35;97716.38;5435787;26;20055;-78
2022/05/23 07:47:42;;;;;;;3.87;1.45;;;;;;;26.89;27.49;97717.09;5435064;26;20413;-78
2022/05/23 07:50:11;;;;;;;5.10;1.75;;;;;;;27.20;25.71;97717.06;5435478;26;20053;-80
2022/05/23 07:52:38;;;;;;;4.65;1.98;;;;;;;25.41;28.25;97721.28;5434660;26;20417;-80
2022/05/23 08:00:38;;;;;;;5.75;2.10;;;;;;;26.56;28.63;97711.19;5435266;26;20070;-80
2022/05/23 08:03:13;;;;;;;3.55;1.80;;;;;;;26.75;29.08;97694.88;5435932;26;20111;-80
2022/05/23 08:05:40;;;;;;;4.03;1.73;;;;;;;26.19;28.44;97702.94;5417337;26;20059;-80
2022/05/23 08:08:07;;;;;;;8.80;2.58;;;;;;;26.12;28.70;97707.25;5436558;26;20070;-80
2022/05/23 08:10:35;;;;;;;5.28;1.80;;;;;;;26.52;28.10;97700.16;5436542;26;20053;-80
2022/05/23 08:13:08;;;;;;;8.85;2.50;;;;;;;26.47;28.00;97689.25;5435802;26;20667;-80
2022/05/23 08:15:38;;;;;;;4.95;2.00;;;;;;;26.48;30.00;97689.09;5436339;26;20078;-79
2022/05/23 08:18:07;;;;;;;3.20;1.42;;;;;;;27.05;28.73;97693.19;5436504;26;20617;-80
2022/05/23 08:20:35;;;;;;;5.62;1.80;;;;;;;25.95;28.73;97701.22;5436442;26;20106;-80
2022/05/23 08:23:03;;;;;;;6.80;2.00;;;;;;;26.69;27.80;97701.72;5435590;26;20115;-79
2022/05/23 08:25:30;;;;;;;8.15;2.05;;;;;;;26.83;27.51;97689.53;5436726;26;20054;-79
2022/05/23 08:27:57;;;;;;;2.97;1.60;;;;;;;26.93;27.69;97689.28;5416166;26;20125;-79
2022/05/23 08:30:24;;;;;;;5.10;1.90;;;;;;;26.12;27.98;97694.03;5435931;26;20046;-79
2022/05/23 08:32:51;;;;;;;5.32;1.90;;;;;;;26.23;28.00;97693.66;5435816;26;20101;-78
2022/05/23 08:35:18;;;;;;;6.30;1.90;;;;;;;26.72;27.30;97697.88;5436640;26;20067;-79
2022/05/23 08:37:52;;;;;;;5.05;1.80;;;;;;;26.47;29.05;97699.84;5436425;26;20061;-79
2022/05/23 08:40:25;;;;;;;3.60;1.80;;;;;;;25.43;29.17;97695.53;5436572;26;20078;-78
2022/05/23 08:42:57;;;;;;;5.57;1.98;;;;;;;26.58;28.48;97696.78;5397803;26;20495;-78
2022/05/23 08:45:30;;;;;;;7.80;2.20;;;;;;;26.30;28.88;97695.62;5436711;26;20090;-77
2022/05/23 08:48:01;;;;;;;3.62;1.73;;;;;;;25.59;29.97;97694.69;5416508;26;20071;-77
2022/05/23 08:50:47;;;;;;;2.60;1.60;;;;;;;25.73;29.62;97698.47;5436034;26;20105;-78
2022/05/23 08:53:24;;;;;;;7.70;2.13;;;;;;;26.64;28.40;97703.22;5435748;26;20306;-78
2022/05/23 08:55:53;;;;;;;5.65;2.10;;;;;;;26.46;28.22;97692.91;5436652;26;20129;-78
2022/05/23 08:58:23;;;;;;;5.57;1.98;;;;;;;26.92;27.53;97699.06;5435394;26;20726;-78
2022/05/23 09:01:05;;;;;;;5.65;1.80;;;;;;;26.68;29.26;97705.31;5436458;26;20150;-78
2022/05/23 09:03:35;;;;;;;5.22;1.70;;;;;;;27.26;26.67;97705.75;5435322;26;20468;-78
2022/05/23 09:06:07;;;;;;;4.43;1.92;;;;;;;27.60;26.76;97705.28;5416283;26;20468;-78
2022/05/23 09:08:42;;;;;;;4.72;1.80;;;;;;;26.89;26.76;97703.88;5436654;26;20113;-78
2022/05/23 09:11:18;;;;;;;8.45;1.98;;;;;;;26.74;27.07;97696.69;5436175;26;20487;-77
2022/05/23 09:13:46;;;;;;;4.65;1.90;;;;;;;27.09;26.97;97705.06;5415376;26;20131;-77
2022/05/23 09:16:13;;;;;;;3.75;1.85;;;;;;;28.25;25.31;97692.09;5416378;26;20079;-77
2022/05/23 09:18:49;;;;;;;4.65;1.67;;;;;;;29.26;24.86;97685.00;5436051;26;20409;-77
2022/05/23 09:21:16;;;;;;;3.85;1.60;;;;;;;28.41;24.94;97688.47;5436665;26;20441;-77
2022/05/23 09:23:51;;;;;;;4.00;1.73;;;;;;;27.89;25.50;97684.13;5435882;26;20130;-77
2022/05/23 09:26:27;;;;;;;3.53;1.50;;;;;;;28.31;25.12;97687.94;5436541;26;20083;-77
2022/05/23 09:28:54;;;;;;;2.85;1.50;;;;;;;28.56;23.78;97687.59;5436464;26;20069;-77
2022/05/23 09:31:37;;;;;;;5.57;1.70;;;;;;;28.22;25.12;97692.50;5436155;26;20063;-77
2022/05/23 09:34:05;;;;;;;5.62;1.80;;;;;;;28.33;25.10;97682.44;5415433;26;20150;-77
2022/05/23 09:36:37;;;;;;;4.05;1.70;;;;;;;28.66;23.62;97680.97;5440508;26;20118;-77
2022/05/23 09:39:11;;;;;;;6.45;1.83;;;;;;;27.54;26.22;97679.47;5438674;26;20075;-78
2022/05/23 09:47:46;;;;;;;5.40;1.70;;;;;;;27.41;26.65;97671.34;5436247;26;20111;-77
2022/05/23 09:50:31;;;;;;;3.72;1.60;;;;;;;26.46;28.04;97669.09;5436473;26;20050;-77
2022/05/23 09:53:21;;;;;;;5.03;1.62;;;;;;;27.12;26.75;97664.19;5435157;26;20043;-77
2022/05/23 09:55:49;;;;;;;5.15;1.60;;;;;;;27.67;26.38;97671.78;5436465;26;20135;-77
2022/05/23 09:58:27;;;;;;;5.00;1.70;;;;;;;27.08;26.58;97672.47;5415282;26;20097;-77
2022/05/23 10:01:01;;;;;;;3.00;1.62;;;;;;;27.85;25.61;97672.22;5415898;26;20055;-77
2022/05/23 10:03:30;;;;;;;5.30;1.70;;;;;;;28.36;25.14;97663.47;5415260;26;20541;-77
2022/05/23 10:06:11;;;;;;;2.83;1.67;;;;;;;28.12;25.71;97673.38;5416077;26;20055;-77
2022/05/23 10:08:46;;;;;;;5.62;1.50;;;;;;;28.78;24.99;97670.66;5415765;26;20066;-76
2022/05/23 10:11:24;;;;;;;5.68;1.70;;;;;;;29.00;24.27;97674.97;5416609;26;20110;-77
2022/05/23 10:13:54;;;;;;;4.25;1.58;;;;;;;28.60;24.62;97681.69;5435602;26;20122;-77
2022/05/23 10:16:24;;;;;;;4.28;1.60;;;;;;;27.28;26.97;97679.91;5416217;26;20060;-77
2022/05/23 10:18:53;;;;;;;4.00;1.52;;;;;;;27.73;25.88;97678.97;5436343;26;20060;-77
2022/05/23 10:21:28;;;;;;;3.45;1.60;;;;;;;27.48;25.50;97677.56;5436250;26;20051;-77
2022/05/23 10:24:18;;;;;;;5.25;1.67;;;;;;;27.23;26.63;97669.06;5435416;26;20070;-76
2022/05/23 10:26:53;;;;;;;3.62;1.52;;;;;;;27.06;26.45;97676.31;5436578;26;20081;-77
2022/05/23 10:29:44;;;;;;;4.87;1.70;;;;;;;27.98;25.92;97668.13;5436212;26;20462;-77
2022/05/23 10:32:16;;;;;;;3.97;1.87;;;;;;;27.67;26.25;97669.94;5406698;26;20051;-78
2022/05/23 10:34:50;;;;;;;7.00;2.00;;;;;;;27.99;26.39;97669.75;5388671;26;20465;-78
2022/05/23 10:37:21;;;;;;;8.05;2.33;;;;;;;27.55;27.22;97665.25;5390517;26;20312;-78
2022/05/23 10:42:55;;;;;;;4.85;1.60;;;;;;;29.23;24.77;97658.81;5389083;26;20993;-78
2022/05/23 10:45:46;;;;;;;7.43;1.83;;;;;;;28.17;26.29;97657.72;5390362;26;20639;-78
2022/05/23 10:48:26;;;;;;;3.67;1.80;;;;;;;28.11;26.81;97650.53;5390395;26;20083;-77
2022/05/23 10:51:11;;;;;;;5.85;2.05;;;;;;;27.83;26.20;97645.06;5390120;26;20071;-78
2022/05/23 10:54:18;;;;;;;5.00;1.98;;;;;;;28.05;27.53;97650.44;5388001;26;20059;-78
2022/05/23 10:57:12;;;;;;;6.80;2.22;;;;;;;27.55;28.14;97642.22;5389513;26;20099;-78
2022/05/23 11:00:03;;;;;;;4.50;1.70;;;;;;;28.53;27.40;97646.34;5390426;26;20066;-77
2022/05/23 11:03:03;;;;;;;5.62;1.70;;;;;;;29.05;26.56;97642.56;5389333;26;20409;-77
2022/05/23 11:05:33;;;;;;;5.30;1.80;;;;;;;28.67;27.72;97640.13;5385005;26;20074;-78
2022/05/23 11:08:09;;;;;;;5.47;1.70;;;;;;;29.00;25.71;97629.00;5390356;26;20054;-78
2022/05/23 11:10:45;;;;;;;4.87;1.80;;;;;;;29.47;24.77;97622.19;5390104;26;20060;-78
2022/05/23 11:13:15;;;;;;;3.08;1.70;;;;;;;28.52;26.41;97620.81;5389222;26;20528;-78
2022/05/23 11:15:49;;;;;;;7.40;1.80;;;;;;;29.67;23.90;97624.00;5390115;26;20066;-77
2022/05/23 11:18:37;;;;;;;6.32;1.90;;;;;;;30.49;22.88;97635.53;5389821;26;20414;-78
2022/05/23 11:21:09;;;;;;;3.03;1.52;;;;;;;29.54;23.84;97631.03;5390286;26;20107;-78
2022/05/23 11:23:45;;;;;;;3.70;1.60;;;;;;;29.48;23.07;97629.19;5387762;26;20086;-79
2022/05/23 11:26:16;;;;;;;;;;;;;;;30.39;21.49;97627.94;5389191;26;20115;-78
2022/05/23 11:34:26;;;;;;;3.95;1.60;;;;;;;30.71;20.94;97615.75;5418135;26;20058;-77
2022/05/23 11:39:54;;;;;;;4.57;1.70;;;;;;;29.83;22.84;97608.72;5416232;26;20552;-77
2022/05/23 11:42:53;;;;;;;5.82;1.50;;;;;;;28.68;23.68;97612.56;5416123;26;20227;-78
2022/05/23 11:48:29;;;;;;;5.68;1.70;;;;;;;30.00;23.50;97609.19;5419931;26;20611;-77
2022/05/23 11:51:09;;;;;;;3.33;1.40;;;;;;;28.52;23.75;97616.31;5436916;26;20067;-77
2022/05/23 11:53:37;;;;;;;5.70;1.48;;;;;;;29.38;22.85;97614.38;5415315;26;20123;-77
2022/05/23 11:56:08;;;;;;;6.72;1.98;;;;;;;28.65;21.37;97605.00;5436578;26;20378;-77
2022/05/23 11:58:49;;;;;;;3.78;1.55;;;;;;;29.36;22.12;97611.09;5436321;26;20134;-77
2022/05/23 12:01:30;;;;;;;3.35;1.60;;;;;;;28.00;23.98;97611.22;5437379;26;20400;-77
2022/05/23 12:04:00;;;;;;;4.25;1.90;;;;;;;28.22;23.50;97615.56;5436033;26;20071;-77
2022/05/23 12:06:28;;;;;;;5.97;1.45;;;;;;;28.70;23.78;97610.53;5436905;26;20047;-77
2022/05/23 12:09:02;;;;;;;6.75;1.75;;;;;;;29.17;22.88;97609.13;5436657;26;20055;-77
2022/05/23 12:11:35;;;;;;;4.03;1.65;;;;;;;28.49;23.98;97600.75;5437047;26;20051;-77
2022/05/23 12:14:12;;;;;;;8.60;2.30;;;;;;;28.22;25.62;97602.31;5435469;26;20111;-77
2022/05/23 12:16:42;;;;;;;3.67;1.70;;;;;;;29.06;25.55;97599.84;5437217;26;20107;-77
2022/05/23 12:19:40;;;;;;;4.03;1.75;;;;;;;29.45;23.92;97595.78;5397757;26;20055;-77
2022/05/23 12:22:16;;;;;;;;;;;;;;;28.06;25.32;97588.44;5437665;26;20058;-77
2022/05/23 12:25:08;;;;;;;3.45;1.75;;;;;;;28.32;26.20;97583.47;5439038;26;19971;-77
2022/05/23 12:27:38;;;;;;;4.28;1.70;;;;;;;28.09;26.85;97585.44;5435492;26;20455;-77
2022/05/23 12:30:17;;;;;;;6.57;1.90;;;;;;;27.93;26.19;97589.12;5437220;26;20055;-77
2022/05/23 12:32:56;;;;;;;6.05;1.90;;;;;;;28.52;25.71;97581.81;5436054;26;20047;-77
2022/05/23 12:35:41;;;;;;;5.93;1.90;;;;;;;28.06;26.06;97583.13;5395499;26;20092;-77
2022/05/23 12:38:17;;;;;;;3.33;1.60;;;;;;;29.30;24.70;97576.50;5435260;26;20063;-77
2022/05/23 12:41:10;;;;;;;2.95;1.50;;;;;;;29.16;23.80;97572.13;5414955;26;20421;-77
2022/05/23 12:43:55;;;;;;;3.00;1.60;;;;;;;30.12;23.57;97570.37;5435861;26;20047;-78
2022/05/23 12:46:42;;;;;;;4.25;1.85;;;;;;;30.48;22.83;97556.72;5436303;26;20114;-78
2022/05/23 12:49:17;;;;;;;4.90;1.80;;;;;;;29.59;23.65;97554.22;5436725;26;20121;-78
2022/05/23 12:52:14;;;;;;;3.47;1.67;;;;;;;30.84;23.51;97555.50;5437474;26;20058;-78